createdAt,value
2023-03-27T00:01:24.452Z,96.49
2023-03-27T00:03:53.632Z,97.22
2023-03-27T00:06:25.022Z,97.31
2023-03-27T00:08:54.924Z,96.40
2023-03-27T00:11:25.926Z,95.90
2023-03-27T00:13:54.938Z,96.10
2023-03-27T00:16:25.498Z,96.93
2023-03-27T00:18:54.290Z,97.53
2023-03-27T00:21:22.998Z,95.46
2023-03-27T00:23:51.336Z,96.21
2023-03-27T00:26:22.062Z,96.51
2023-03-27T00:28:50.193Z,96.71
2023-03-27T00:31:18.261Z,98.04
2023-03-27T00:33:46.609Z,96.87
2023-03-27T00:36:15.284Z,95.07
2023-03-27T00:38:45.924Z,94.92
2023-03-27T00:41:14.083Z,95.19
2023-03-27T00:43:45.038Z,95.08
2023-03-27T00:46:32.673Z,92.63
2023-03-27T00:49:05.022Z,92.02
2023-03-27T00:51:33.400Z,91.79
2023-03-27T00:54:02.593Z,91.37
2023-03-27T00:56:30.885Z,90.05
2023-03-27T00:59:04.106Z,91.24
2023-03-27T01:01:32.435Z,91.84
2023-03-27T01:04:05.874Z,92.55
2023-03-27T01:06:34.656Z,92.45
2023-03-27T01:09:04.610Z,93.38
2023-03-27T01:11:43.793Z,93.35
2023-03-27T01:14:26.435Z,93.26
2023-03-27T01:17:08.430Z,93.31
2023-03-27T01:19:56.044Z,93.72
2023-03-27T01:22:57.106Z,93.47
2023-03-27T01:26:10.038Z,93.33
2023-03-27T01:28:50.154Z,92.69
2023-03-27T01:31:35.032Z,93.61
2023-03-27T01:34:27.205Z,93.52
2023-03-27T01:37:25.393Z,93.63
2023-03-27T01:40:01.934Z,92.54
2023-03-27T01:42:36.914Z,92.58
2023-03-27T01:45:09.281Z,92.32
2023-03-27T01:47:45.577Z,94.05
2023-03-27T01:50:22.649Z,93.98
2023-03-27T01:52:57.400Z,94.45
2023-03-27T01:55:31.487Z,94.17
2023-03-27T01:58:03.664Z,95.19
2023-03-27T02:00:52.140Z,93.36
2023-03-27T02:03:27.635Z,94.29
2023-03-27T02:06:02.603Z,93.82
2023-03-27T02:08:37.684Z,93.16
2023-03-27T02:11:29.224Z,94.49
2023-03-27T02:14:01.291Z,94.73
2023-03-27T02:16:34.678Z,94.80
2023-03-27T02:19:11.302Z,93.64
2023-03-27T02:21:41.837Z,93.04
2023-03-27T02:24:10.444Z,92.92
2023-03-27T02:26:41.797Z,93.14
2023-03-27T02:29:28.408Z,92.46
2023-03-27T02:32:08.999Z,93.00
2023-03-27T02:34:57.041Z,92.85
2023-03-27T02:37:37.200Z,90.99
2023-03-27T02:40:41.402Z,91.30
2023-03-27T02:43:59.090Z,90.64
2023-03-27T02:46:54.587Z,89.81
2023-03-27T02:49:29.003Z,90.48
2023-03-27T02:52:01.826Z,88.94
2023-03-27T02:54:35.834Z,88.85
2023-03-27T02:57:09.193Z,89.73
2023-03-27T03:00:06.084Z,89.17
2023-03-27T03:02:40.859Z,89.53
2023-03-27T03:05:17.388Z,89.94
2023-03-27T03:07:46.501Z,90.76
2023-03-27T03:10:16.068Z,90.99
2023-03-27T03:12:44.172Z,90.89
2023-03-27T03:15:14.075Z,89.58
2023-03-27T03:17:42.627Z,88.98
2023-03-27T03:20:16.698Z,88.88
2023-03-27T03:22:44.493Z,89.59
2023-03-27T03:25:18.120Z,89.63
2023-03-27T03:27:46.056Z,89.75
2023-03-27T03:30:16.636Z,88.65
2023-03-27T03:33:00.237Z,88.14
2023-03-27T03:35:29.134Z,89.48
2023-03-27T03:37:59.420Z,88.50
2023-03-27T03:40:28.458Z,88.15
2023-03-27T03:42:59.119Z,88.29
2023-03-27T03:45:31.220Z,88.27
2023-03-27T03:47:59.744Z,88.26
2023-03-27T03:50:27.749Z,87.91
2023-03-27T03:52:55.569Z,86.92
2023-03-27T03:55:25.691Z,87.13
2023-03-27T03:57:53.708Z,85.21
2023-03-27T04:00:26.892Z,86.32
2023-03-27T04:02:58.927Z,86.35
2023-03-27T04:05:27.032Z,87.83
2023-03-27T04:07:59.382Z,89.56
2023-03-27T04:10:27.585Z,89.13
2023-03-27T04:12:58.426Z,87.96
2023-03-27T04:15:36.461Z,88.17
2023-03-27T04:18:35.271Z,87.00
2023-03-27T04:21:15.345Z,87.17
2023-03-27T04:23:43.669Z,85.73
2023-03-27T04:26:13.500Z,85.31
2023-03-27T04:29:11.878Z,86.67
2023-03-27T04:31:58.830Z,84.97
2023-03-27T04:34:43.325Z,84.07
2023-03-27T04:37:30.507Z,84.32
2023-03-27T04:40:18.042Z,84.10
2023-03-27T04:42:46.504Z,83.71
2023-03-27T04:45:17.280Z,82.79
2023-03-27T04:47:48.831Z,81.67
2023-03-27T04:50:19.169Z,81.93
2023-03-27T04:52:49.809Z,81.29
2023-03-27T04:55:19.777Z,81.67
2023-03-27T04:57:50.584Z,80.78
2023-03-27T05:00:20.420Z,81.50
2023-03-27T05:02:50.157Z,80.93
2023-03-27T05:05:25.822Z,81.39
2023-03-27T05:07:54.595Z,81.47
2023-03-27T05:10:25.378Z,79.86
2023-03-27T05:12:57.200Z,81.39
2023-03-27T05:15:32.375Z,79.43
2023-03-27T05:18:02.579Z,80.34
2023-03-27T05:20:34.166Z,79.98
2023-03-27T05:23:07.387Z,79.42
2023-03-27T05:25:35.268Z,79.26
2023-03-27T05:28:07.529Z,79.49
2023-03-27T05:30:36.663Z,77.71
2023-03-27T05:33:17.515Z,76.80
2023-03-27T05:35:50.191Z,78.45
2023-03-27T05:38:18.910Z,77.49
2023-03-27T05:41:07.282Z,78.26
2023-03-27T05:43:40.198Z,78.58
2023-03-27T05:46:08.660Z,77.93
2023-03-27T05:48:38.642Z,76.87
2023-03-27T05:51:09.389Z,77.59
2023-03-27T05:53:39.272Z,77.29
2023-03-27T05:56:18.898Z,77.81
2023-03-27T05:58:55.673Z,77.12
2023-03-27T06:01:25.842Z,77.16
2023-03-27T06:03:56.473Z,78.12
2023-03-27T06:06:46.528Z,78.29
2023-03-27T06:09:14.871Z,76.58
2023-03-27T06:11:50.580Z,76.02
2023-03-27T06:14:20.573Z,76.68
2023-03-27T06:17:06.478Z,76.63
2023-03-27T06:19:49.528Z,75.95
2023-03-27T06:22:19.445Z,75.83
2023-03-27T06:24:49.645Z,76.68
2023-03-27T06:27:21.538Z,74.79
2023-03-27T06:29:49.497Z,76.18
2023-03-27T06:32:17.767Z,74.59
2023-03-27T06:34:51.824Z,75.81
2023-03-27T06:37:41.058Z,75.58
2023-03-27T06:40:10.417Z,75.65
2023-03-27T06:42:40.751Z,75.50
2023-03-27T06:45:35.692Z,75.00
2023-03-27T06:48:30.097Z,74.57
2023-03-27T06:50:58.839Z,74.55
2023-03-27T06:53:31.178Z,74.80
2023-03-27T06:56:05.112Z,75.87
2023-03-27T06:58:53.054Z,73.56
2023-03-27T07:01:22.676Z,73.84
2023-03-27T07:03:59.472Z,72.72
2023-03-27T07:06:48.897Z,73.83
2023-03-27T07:09:18.550Z,73.15
2023-03-27T07:11:57.584Z,73.39
2023-03-27T07:14:25.651Z,73.50
2023-03-27T07:16:53.722Z,74.01
2023-03-27T07:19:25.667Z,74.09
2023-03-27T07:22:02.912Z,71.50
2023-03-27T07:24:34.745Z,71.42
2023-03-27T07:27:03.220Z,71.00
2023-03-27T07:29:34.004Z,71.36
2023-03-27T07:32:06.934Z,71.30
2023-03-27T07:34:41.115Z,71.48
2023-03-27T07:37:29.928Z,70.08
2023-03-27T07:40:36.900Z,68.26
2023-03-27T07:43:30.734Z,69.31
2023-03-27T07:46:01.594Z,69.90
2023-03-27T07:48:30.399Z,70.15
2023-03-27T07:51:10.843Z,68.37
2023-03-27T07:53:43.654Z,70.27
2023-03-27T07:56:19.399Z,67.46
2023-03-27T07:58:48.983Z,69.06
2023-03-27T08:01:21.426Z,68.69
2023-03-27T08:03:50.491Z,67.12
2023-03-27T08:06:20.415Z,68.02
2023-03-27T08:08:50.308Z,66.96
2023-03-27T08:11:30.180Z,67.67
2023-03-27T08:13:59.693Z,64.45
2023-03-27T08:16:29.843Z,63.51
2023-03-27T08:19:00.752Z,62.65
2023-03-27T08:21:33.246Z,62.14
2023-03-27T08:24:02.680Z,60.93
2023-03-27T08:26:38.150Z,61.02
2023-03-27T08:29:12.432Z,58.69
2023-03-27T08:31:41.162Z,57.60
2023-03-27T08:34:10.198Z,57.37
2023-03-27T08:36:52.533Z,55.17
2023-03-27T08:39:22.848Z,56.32
2023-03-27T08:42:01.012Z,55.10
2023-03-27T08:44:38.652Z,55.35
2023-03-27T08:47:17.893Z,56.04
2023-03-27T08:49:58.518Z,55.68
2023-03-27T08:52:34.019Z,53.18
2023-03-27T08:55:13.451Z,53.43
2023-03-27T08:57:51.756Z,53.17
2023-03-27T09:00:27.278Z,53.99
2023-03-27T09:03:16.588Z,52.72
2023-03-27T09:05:52.951Z,53.13
2023-03-27T09:08:35.736Z,55.34
2023-03-27T09:11:11.352Z,54.71
2023-03-27T09:13:53.451Z,54.54
2023-03-27T09:16:27.444Z,56.86
2023-03-27T09:19:04.942Z,54.40
2023-03-27T09:21:39.476Z,54.48
2023-03-27T09:24:18.743Z,55.04
2023-03-27T09:27:18.239Z,52.38
2023-03-27T09:30:18.582Z,53.52
2023-03-27T09:32:59.126Z,53.83
2023-03-27T09:35:28.108Z,53.70
2023-03-27T09:38:01.228Z,53.95
2023-03-27T09:40:34.544Z,52.05
2023-03-27T09:43:09.658Z,52.18
2023-03-27T09:45:42.317Z,50.42
2023-03-27T09:48:15.482Z,50.80
2023-03-27T09:50:49.274Z,53.38
2023-03-27T09:53:57.393Z,52.35
2023-03-27T09:56:29.475Z,51.43
2023-03-27T09:58:59.069Z,53.53
2023-03-27T10:01:34.577Z,51.46
2023-03-27T10:04:17.201Z,50.20
2023-03-27T10:06:49.410Z,50.99
2023-03-27T10:09:26.775Z,49.65
2023-03-27T10:12:09.507Z,50.36
2023-03-27T10:14:41.444Z,50.55
2023-03-27T10:17:23.536Z,48.37
2023-03-27T10:20:04.262Z,49.99
2023-03-27T10:22:39.477Z,48.50
2023-03-27T10:25:18.622Z,50.25
2023-03-27T10:27:55.256Z,48.19
2023-03-27T10:30:35.390Z,47.80
2023-03-27T10:33:33.939Z,45.68
2023-03-27T10:36:21.372Z,45.18
2023-03-27T10:38:58.055Z,45.92
2023-03-27T10:41:43.518Z,47.90
2023-03-27T10:44:17.956Z,47.95
2023-03-27T10:46:54.135Z,46.17
2023-03-27T10:49:36.477Z,46.53
2023-03-27T10:52:17.319Z,44.98
2023-03-27T10:55:20.137Z,46.18
2023-03-27T10:57:56.792Z,44.41
2023-03-27T11:00:40.103Z,46.11
2023-03-27T11:03:18.187Z,45.41
2023-03-27T11:06:05.482Z,45.86
2023-03-27T11:08:47.973Z,46.36
2023-03-27T11:11:22.337Z,48.06
2023-03-27T11:13:55.275Z,47.88
2023-03-27T11:16:27.131Z,46.86
2023-03-27T11:19:27.969Z,46.76
2023-03-27T11:22:29.910Z,45.09
2023-03-27T11:25:05.828Z,43.44
2023-03-27T11:27:40.000Z,44.87
2023-03-27T11:30:32.353Z,45.42
2023-03-27T11:33:10.718Z,45.94
2023-03-27T11:35:48.720Z,44.87
2023-03-27T11:38:46.500Z,46.68
2023-03-27T11:41:16.335Z,46.26
2023-03-27T11:43:45.417Z,44.54
2023-03-27T11:46:54.068Z,43.99
2023-03-27T11:50:08.004Z,42.31
2023-03-27T11:52:53.417Z,42.42
2023-03-27T11:55:58.685Z,43.33
2023-03-27T11:58:33.408Z,43.69
2023-03-27T12:01:09.878Z,43.37
2023-03-27T12:04:00.994Z,43.26
2023-03-27T12:06:52.110Z,42.08
2023-03-27T12:09:41.521Z,43.50
2023-03-27T12:13:00.803Z,45.82
2023-03-27T12:15:43.085Z,41.96
2023-03-27T12:18:27.498Z,42.69
2023-03-27T12:21:25.078Z,42.85
2023-03-27T12:24:20.101Z,45.11
2023-03-27T12:27:28.919Z,44.25
2023-03-27T12:30:27.574Z,41.89
2023-03-27T12:33:31.855Z,40.92
2023-03-27T12:36:03.008Z,39.13
2023-03-27T12:38:33.588Z,40.84
2023-03-27T12:41:06.376Z,42.43
2023-03-27T12:43:58.439Z,41.70
2023-03-27T12:47:08.457Z,41.57
2023-03-27T12:49:48.164Z,42.03
2023-03-27T12:52:27.059Z,45.43
2023-03-27T12:55:25.211Z,44.39
2023-03-27T12:58:00.650Z,44.19
2023-03-27T13:00:54.865Z,45.55
2023-03-27T13:04:05.709Z,45.31
2023-03-27T13:06:47.174Z,45.47
2023-03-27T13:09:33.914Z,46.51
2023-03-27T13:12:21.521Z,46.12
2023-03-27T13:15:20.943Z,45.91
2023-03-27T13:18:02.496Z,47.36
2023-03-27T13:20:47.067Z,53.55
2023-03-27T13:23:45.332Z,63.83
2023-03-27T13:26:35.555Z,66.12
2023-03-27T13:29:11.671Z,66.23
2023-03-27T13:32:01.155Z,69.76
2023-03-27T13:35:02.390Z,69.85
2023-03-27T13:37:53.665Z,73.12
2023-03-27T13:40:32.062Z,71.58
2023-03-27T13:43:15.641Z,71.01
2023-03-27T13:45:48.181Z,72.81
2023-03-27T13:48:59.024Z,70.18
2023-03-27T13:52:07.990Z,72.77
2023-03-27T13:55:06.048Z,73.69
2023-03-27T13:58:21.128Z,73.80
2023-03-27T14:01:18.009Z,74.39
2023-03-27T14:04:22.541Z,75.18
2023-03-27T14:07:21.274Z,74.25
2023-03-27T14:10:28.414Z,74.60
2023-03-27T14:13:31.151Z,74.51
2023-03-27T14:16:38.267Z,72.07
2023-03-27T14:19:34.443Z,72.65
2023-03-27T14:22:16.324Z,69.45
2023-03-27T14:25:04.077Z,68.70
2023-03-27T14:27:44.570Z,67.77
2023-03-27T14:30:23.408Z,65.38
2023-03-27T14:33:29.200Z,66.00
2023-03-27T14:36:03.974Z,64.77
2023-03-27T14:38:34.673Z,66.38
2023-03-27T14:41:05.113Z,64.44
2023-03-27T14:43:48.555Z,65.05
2023-03-27T14:46:21.610Z,65.62
2023-03-27T14:48:54.848Z,63.45
2023-03-27T14:51:27.148Z,63.97
2023-03-27T14:54:01.261Z,64.38
2023-03-27T14:56:47.509Z,65.38
2023-03-27T14:59:34.970Z,65.19
2023-03-27T15:02:15.821Z,64.18
2023-03-27T15:04:44.215Z,62.57
2023-03-27T15:07:19.740Z,63.13
2023-03-27T15:10:12.485Z,62.93
2023-03-27T15:12:59.805Z,62.66
2023-03-27T15:15:39.566Z,62.72
2023-03-27T15:18:17.351Z,63.59
2023-03-27T15:20:50.514Z,63.54
2023-03-27T15:23:23.039Z,61.37
2023-03-27T15:25:56.597Z,63.78
2023-03-27T15:28:30.254Z,66.88
2023-03-27T15:31:01.740Z,65.56
2023-03-27T15:33:36.112Z,64.34
2023-03-27T15:36:10.178Z,66.48
2023-03-27T15:38:38.990Z,65.53
2023-03-27T15:41:39.567Z,65.80
2023-03-27T15:44:23.093Z,67.01
2023-03-27T15:46:59.622Z,67.42
2023-03-27T15:49:35.106Z,68.01
2023-03-27T15:52:30.748Z,66.30
2023-03-27T15:55:01.901Z,67.08
2023-03-27T15:57:30.590Z,66.88
2023-03-27T16:00:05.738Z,67.72
2023-03-27T16:02:42.320Z,66.57
2023-03-27T16:05:20.223Z,68.54
2023-03-27T16:07:49.412Z,68.91
2023-03-27T16:10:30.957Z,69.60
2023-03-27T16:13:02.590Z,69.87
2023-03-27T16:15:33.455Z,70.25
2023-03-27T16:18:05.097Z,70.54
2023-03-27T16:20:40.534Z,70.67
2023-03-27T16:23:08.794Z,70.10
2023-03-27T16:25:36.967Z,70.82
2023-03-27T16:28:08.374Z,71.04
2023-03-27T16:30:38.998Z,70.27
2023-03-27T16:33:15.786Z,70.11
2023-03-27T16:35:46.778Z,70.62
2023-03-27T16:38:14.745Z,70.03
2023-03-27T16:40:42.951Z,70.61
2023-03-27T16:43:11.448Z,72.50
2023-03-27T16:45:39.770Z,71.49
2023-03-27T16:48:08.261Z,70.93
2023-03-27T16:50:37.059Z,70.91
2023-03-27T16:53:06.406Z,70.26
2023-03-27T16:55:34.595Z,70.48
2023-03-27T16:58:03.713Z,71.19
2023-03-27T17:00:34.690Z,71.15
2023-03-27T17:03:03.734Z,70.93
2023-03-27T17:05:34.466Z,71.09
2023-03-27T17:08:04.545Z,70.81
2023-03-27T17:10:35.663Z,71.48
2023-03-27T17:13:03.735Z,71.44
2023-03-27T17:15:32.496Z,72.97
2023-03-27T17:18:00.638Z,73.88
2023-03-27T17:20:28.590Z,72.51
2023-03-27T17:22:57.132Z,71.82
2023-03-27T17:25:25.527Z,72.36
2023-03-27T17:27:55.013Z,73.99
2023-03-27T17:30:36.721Z,73.88
2023-03-27T17:33:06.994Z,74.16
2023-03-27T17:35:35.048Z,73.68
2023-03-27T17:38:03.422Z,73.74
2023-03-27T17:40:31.504Z,74.49
2023-03-27T17:43:00.905Z,74.58
2023-03-27T17:45:28.966Z,74.74
2023-03-27T17:47:57.045Z,75.54
2023-03-27T17:50:25.870Z,75.38
2023-03-27T17:52:54.988Z,74.77
2023-03-27T17:55:23.022Z,75.17
2023-03-27T17:58:07.759Z,75.12
2023-03-27T18:00:42.642Z,76.24
2023-03-27T18:03:11.523Z,76.36
2023-03-27T18:05:42.298Z,76.10
2023-03-27T18:08:13.989Z,76.18
2023-03-27T18:10:49.032Z,76.12
2023-03-27T18:13:22.849Z,75.84
2023-03-27T18:15:55.257Z,75.58
2023-03-27T18:18:23.373Z,75.64
2023-03-27T18:20:52.277Z,75.37
2023-03-27T18:23:20.533Z,74.95
2023-03-27T18:25:49.197Z,74.82
2023-03-27T18:28:17.606Z,76.12
2023-03-27T18:30:46.576Z,76.36
2023-03-27T18:33:16.466Z,76.51
2023-03-27T18:35:44.750Z,76.43
2023-03-27T18:38:14.306Z,77.05
2023-03-27T18:40:42.471Z,77.23
2023-03-27T18:43:12.609Z,77.39
2023-03-27T18:45:41.564Z,77.52
2023-03-27T18:48:10.351Z,78.61
2023-03-27T18:50:40.071Z,77.97
2023-03-27T18:53:08.121Z,78.44
2023-03-27T18:55:36.398Z,78.02
2023-03-27T18:58:04.740Z,77.05
2023-03-27T19:00:33.412Z,76.64
2023-03-27T19:03:01.658Z,75.85
2023-03-27T19:05:32.041Z,75.85
2023-03-27T19:08:01.660Z,75.21
2023-03-27T19:10:29.621Z,74.88
2023-03-27T19:13:17.179Z,75.32
2023-03-27T19:15:51.453Z,76.12
2023-03-27T19:18:41.058Z,80.18
2023-03-27T19:21:19.327Z,80.63
2023-03-27T19:23:55.304Z,81.59
2023-03-27T19:26:35.214Z,80.46
2023-03-27T19:29:03.229Z,81.46
2023-03-27T19:31:31.443Z,80.98
2023-03-27T19:34:00.105Z,80.96
2023-03-27T19:36:27.888Z,80.96
2023-03-27T19:38:57.173Z,80.62
2023-03-27T19:41:27.129Z,81.09
2023-03-27T19:43:55.166Z,82.32
2023-03-27T19:46:24.769Z,81.27
2023-03-27T19:48:56.042Z,81.78
2023-03-27T19:51:42.713Z,81.98
2023-03-27T19:54:15.506Z,83.14
2023-03-27T19:56:44.113Z,84.74
2023-03-27T19:59:20.775Z,84.50
2023-03-27T20:01:56.353Z,84.72
2023-03-27T20:04:24.614Z,83.12
2023-03-27T20:06:54.055Z,83.32
2023-03-27T20:09:23.709Z,82.42
2023-03-27T20:11:55.166Z,82.24
2023-03-27T20:14:23.662Z,81.69
2023-03-27T20:16:52.071Z,81.09
2023-03-27T20:19:21.971Z,80.85
2023-03-27T20:21:53.286Z,80.57
2023-03-27T20:24:22.968Z,81.11
2023-03-27T20:26:58.412Z,81.96
2023-03-27T20:29:27.674Z,81.41
2023-03-27T20:31:55.889Z,81.72
2023-03-27T20:34:24.353Z,81.81
2023-03-27T20:36:53.558Z,81.26
2023-03-27T20:39:49.323Z,80.16
2023-03-27T20:42:23.457Z,79.41
2023-03-27T20:44:55.190Z,79.74
2023-03-27T20:47:23.271Z,81.00
2023-03-27T20:49:51.254Z,80.61
2023-03-27T20:52:22.744Z,81.21
2023-03-27T20:54:52.148Z,81.08
2023-03-27T20:57:22.531Z,80.87
2023-03-27T20:59:51.198Z,80.35
2023-03-27T21:02:20.562Z,79.33
2023-03-27T21:04:48.686Z,79.06
2023-03-27T21:07:17.259Z,78.89
2023-03-27T21:09:47.956Z,78.96
2023-03-27T21:12:17.137Z,79.70
2023-03-27T21:14:45.052Z,79.80
2023-03-27T21:17:15.440Z,79.34
2023-03-27T21:19:46.054Z,78.41
2023-03-27T21:22:13.943Z,78.13
2023-03-27T21:24:42.628Z,77.57
2023-03-27T21:27:10.521Z,77.04
2023-03-27T21:29:39.901Z,77.80
2023-03-27T21:32:08.174Z,77.18
2023-03-27T21:34:36.155Z,78.27
2023-03-27T21:37:04.119Z,77.80
2023-03-27T21:39:32.090Z,77.49
2023-03-27T21:42:00.438Z,77.66
2023-03-27T21:44:28.253Z,78.49
2023-03-27T21:46:57.459Z,77.69
2023-03-27T21:49:26.955Z,77.51
2023-03-27T21:51:54.834Z,78.07
2023-03-27T21:54:22.871Z,78.00
2023-03-27T21:56:53.447Z,78.34
2023-03-27T21:59:21.272Z,78.51
2023-03-27T22:01:49.580Z,78.48
2023-03-27T22:04:20.552Z,78.81
2023-03-27T22:06:49.621Z,78.12
2023-03-27T22:09:17.952Z,78.61
2023-03-27T22:11:45.885Z,78.57
2023-03-27T22:14:13.823Z,79.10
2023-03-27T22:16:42.322Z,80.79
2023-03-27T22:19:10.929Z,79.87
2023-03-27T22:21:40.658Z,80.49
2023-03-27T22:24:09.014Z,81.20
2023-03-27T22:26:39.775Z,82.10
2023-03-27T22:29:09.157Z,81.23
2023-03-27T22:31:37.871Z,80.60
2023-03-27T22:34:06.727Z,79.54
2023-03-27T22:36:36.129Z,79.61
2023-03-27T22:39:06.216Z,79.86
2023-03-27T22:41:34.087Z,79.49
2023-03-27T22:44:02.604Z,79.12
2023-03-27T22:46:30.568Z,79.71
2023-03-27T22:49:00.838Z,81.23
2023-03-27T22:51:29.929Z,80.57
2023-03-27T22:53:57.810Z,79.85
2023-03-27T22:56:27.152Z,80.39
2023-03-27T22:58:55.198Z,80.37
2023-03-27T23:01:23.186Z,80.41
2023-03-27T23:03:51.126Z,80.99
2023-03-27T23:06:20.721Z,79.99
2023-03-27T23:08:49.190Z,80.37
2023-03-27T23:11:18.097Z,79.91
2023-03-27T23:13:48.065Z,79.94
2023-03-27T23:16:16.020Z,79.38
2023-03-27T23:18:44.019Z,79.91
2023-03-27T23:21:13.692Z,79.12
2023-03-27T23:23:41.983Z,78.80
2023-03-27T23:26:11.032Z,79.08
2023-03-27T23:28:40.313Z,78.09
2023-03-27T23:31:12.618Z,78.78
2023-03-27T23:33:42.735Z,79.08
2023-03-27T23:36:12.520Z,79.29
2023-03-27T23:38:41.830Z,79.05
2023-03-27T23:41:11.371Z,79.01
2023-03-27T23:43:39.528Z,78.59
2023-03-27T23:46:10.709Z,78.66
2023-03-27T23:48:39.822Z,80.04
2023-03-27T23:51:08.576Z,79.90
2023-03-27T23:53:38.630Z,78.48
2023-03-27T23:56:07.361Z,77.97
2023-03-27T23:58:37.069Z,78.52
